Time;durP1;ratioP1;P1;durP2;ratioP2;P2;SDS_P1;SDS_P2;PMS_P1;PMS_P2;Temp;Humidity;BMP_temperature;BMP_pressure;BME280_temperature;BME280_humidity;BME280_pressure;Samples;Min_cycle;Max_cycle;Signal;HPM_P1;HPM_P2
2022/09/21 00:01:31;;;;;;;3.33;2.40;;;;;;;8.00;100.00;101118.28;5017742;28;20191;-75
2022/09/21 00:04:01;;;;;;;4.13;2.47;;;;;;;8.00;100.00;101120.84;5017739;28;20664;-75
2022/09/21 00:06:29;;;;;;;4.23;2.53;;;;;;;7.96;100.00;101119.06;5018381;28;20218;-75
2022/09/21 00:08:55;;;;;;;2.87;2.50;;;;;;;7.94;100.00;101131.94;5035780;28;20187;-74
2022/09/21 00:11:25;;;;;;;3.13;2.27;;;;;;;7.91;100.00;101116.41;5017961;28;20214;-74
2022/09/21 00:13:59;;;;;;;3.40;2.87;;;;;;;7.90;100.00;101122.41;5014582;28;20674;-75
2022/09/21 00:16:25;;;;;;;2.60;2.30;;;;;;;7.86;100.00;101124.09;5013273;28;20289;-74
2022/09/21 00:18:51;;;;;;;3.40;2.73;;;;;;;7.83;100.00;101120.59;5020965;28;20678;-75
2022/09/21 00:21:18;;;;;;;2.70;2.50;;;;;;;7.80;100.00;101118.81;5016486;28;20185;-74
2022/09/21 00:23:44;;;;;;;2.97;2.33;;;;;;;7.77;100.00;101119.66;5010607;28;20306;-74
2022/09/21 00:26:15;;;;;;;3.17;2.37;;;;;;;7.77;100.00;101123.94;5018560;28;20203;-75
2022/09/21 00:28:42;;;;;;;4.23;2.77;;;;;;;7.76;100.00;101122.22;5020838;28;20198;-75
2022/09/21 00:31:11;;;;;;;2.90;2.70;;;;;;;7.75;100.00;101126.47;5015497;28;20241;-74
2022/09/21 00:33:37;;;;;;;2.80;2.60;;;;;;;7.70;100.00;101122.09;5019704;28;20192;-75
2022/09/21 00:36:11;;;;;;;2.50;2.30;;;;;;;7.65;100.00;101122.03;5007907;28;20734;-75
2022/09/21 00:38:37;;;;;;;2.60;2.40;;;;;;;7.58;100.00;101125.34;5024955;28;20183;-75
2022/09/21 00:41:04;;;;;;;2.93;2.43;;;;;;;7.53;100.00;101119.25;5015346;28;20193;-75
2022/09/21 00:43:33;;;;;;;2.80;2.50;;;;;;;7.50;100.00;101114.03;5018918;28;20655;-74
2022/09/21 00:46:03;;;;;;;4.00;2.53;;;;;;;7.47;100.00;101117.44;5013891;28;20217;-74
2022/09/21 00:48:28;;;;;;;3.20;2.90;;;;;;;7.41;100.00;101118.19;5016569;28;20221;-75
2022/09/21 00:50:58;;;;;;;3.90;2.73;;;;;;;7.39;100.00;101119.88;5018303;28;20241;-75
2022/09/21 00:53:24;;;;;;;2.40;2.20;;;;;;;7.35;100.00;101118.09;5019344;28;20621;-75
2022/09/21 00:55:54;;;;;;;3.17;2.80;;;;;;;7.32;100.00;101118.91;5016996;28;20207;-74
2022/09/21 00:58:29;;;;;;;3.50;2.93;;;;;;;7.27;100.00;101109.34;5008859;28;20720;-74
2022/09/21 01:00:57;;;;;;;3.07;2.57;;;;;;;7.23;100.00;101112.72;5021705;28;20783;-75
2022/09/21 01:03:22;;;;;;;2.90;2.60;;;;;;;7.19;100.00;101110.94;5014952;28;20191;-75
2022/09/21 01:05:47;;;;;;;2.70;2.50;;;;;;;7.16;100.00;101120.31;5016969;28;20208;-74
2022/09/21 01:08:17;;;;;;;3.43;2.53;;;;;;;7.12;100.00;101120.25;5015031;28;20190;-75
2022/09/21 01:10:55;;;;;;;2.93;2.73;;;;;;;7.05;100.00;101113.22;5013103;28;20929;-75
2022/09/21 01:13:46;;;;;;;5.60;2.73;;;;;;;7.03;100.00;101109.78;5015508;28;20227;-75
2022/09/21 01:16:22;;;;;;;4.60;2.47;;;;;;;6.98;100.00;101109.69;5010238;28;20233;-75
2022/09/21 01:19:17;;;;;;;3.57;2.83;;;;;;;6.96;100.00;101119.06;5017150;28;20197;-73
2022/09/21 01:22:13;;;;;;;3.10;2.77;;;;;;;6.95;100.00;101114.78;5021995;28;20200;-74
2022/09/21 01:24:56;;;;;;;2.63;2.43;;;;;;;6.99;100.00;101111.41;5018883;28;20208;-74
2022/09/21 01:27:34;;;;;;;2.80;2.60;;;;;;;7.05;100.00;101114.13;5020717;28;20244;-74
2022/09/21 01:30:06;;;;;;;2.73;2.50;;;;;;;7.08;100.00;101114.19;5021622;28;20819;-75
2022/09/21 01:33:14;;;;;;;2.87;2.63;;;;;;;7.13;100.00;101117.69;5017689;28;20192;-74
2022/09/21 01:35:46;;;;;;;2.97;2.50;;;;;;;7.21;100.00;101115.25;5016739;28;20215;-75
2022/09/21 01:38:18;;;;;;;2.70;2.50;;;;;;;7.27;100.00;101114.50;5014221;28;20194;-75
2022/09/21 01:40:49;;;;;;;2.87;2.60;;;;;;;7.31;100.00;101116.28;5022294;28;20264;-75
2022/09/21 01:43:24;;;;;;;2.50;2.30;;;;;;;7.31;100.00;101114.59;5023413;28;20181;-75
2022/09/21 01:45:53;;;;;;;3.70;2.80;;;;;;;7.29;100.00;101118.84;5020107;28;20206;-74
2022/09/21 01:48:21;;;;;;;3.27;2.60;;;;;;;7.28;100.00;101116.22;5020184;28;20241;-75
2022/09/21 01:50:52;;;;;;;3.40;3.10;;;;;;;7.24;100.00;101129.91;5033067;28;20297;-74
2022/09/21 01:53:32;;;;;;;3.70;3.07;;;;;;;7.22;100.00;101127.28;5020324;28;20279;-75
2022/09/21 01:56:03;;;;;;;4.73;2.70;;;;;;;7.20;100.00;101128.97;5020080;28;20213;-75
2022/09/21 01:58:34;;;;;;;4.20;3.50;;;;;;;7.14;100.00;101124.56;5019951;28;20189;-73
2022/09/21 02:01:00;;;;;;;4.20;3.30;;;;;;;7.10;100.00;101130.53;5021230;28;20182;-75
2022/09/21 02:03:37;;;;;;;3.33;3.10;;;;;;;7.06;100.00;101127.84;5021922;28;20187;-74
2022/09/21 02:06:04;;;;;;;3.30;2.90;;;;;;;6.99;100.00;101126.84;5021409;28;20292;-75
2022/09/21 02:08:31;;;;;;;3.27;2.97;;;;;;;6.94;100.00;101125.91;5022866;28;20695;-75
2022/09/21 02:11:00;;;;;;;3.30;3.00;;;;;;;6.90;100.00;101126.69;5012755;28;20690;-75
2022/09/21 02:13:31;;;;;;;3.33;2.70;;;;;;;6.89;100.00;101123.22;5017134;28;20841;-75
2022/09/21 02:16:32;;;;;;;2.80;2.60;;;;;;;6.86;100.00;101121.47;5021916;28;20210;-75
2022/09/21 02:19:01;;;;;;;3.00;2.70;;;;;;;6.85;100.00;101117.16;5012466;28;20196;-74
2022/09/21 02:21:35;;;;;;;3.30;3.00;;;;;;;6.85;100.00;101119.75;5014605;28;21000;-75
2022/09/21 02:24:09;;;;;;;2.83;2.60;;;;;;;6.84;100.00;101117.16;5021722;28;20458;-75
2022/09/21 02:26:44;;;;;;;2.80;2.60;;;;;;;6.80;100.00;101118.81;5021527;28;20217;-75
2022/09/21 02:29:28;;;;;;;3.30;3.00;;;;;;;6.76;100.00;101110.97;5013951;28;20249;-74
2022/09/21 02:32:24;;;;;;;3.63;3.10;;;;;;;6.73;100.00;101118.66;5015493;28;20217;-75
2022/09/21 02:34:57;;;;;;;3.00;2.70;;;;;;;6.68;100.00;101118.53;5015052;28;20210;-75
2022/09/21 02:37:36;;;;;;;2.80;2.53;;;;;;;6.65;100.00;101119.34;5018950;28;20181;-75
2022/09/21 02:40:30;;;;;;;4.10;2.97;;;;;;;6.60;100.00;101120.94;5020878;28;20176;-75
2022/09/21 02:43:02;;;;;;;3.97;3.00;;;;;;;6.55;100.00;101114.84;5021925;28;20197;-74
2022/09/21 02:45:34;;;;;;;3.77;2.67;;;;;;;6.51;100.00;101111.31;5018708;28;20235;-73
2022/09/21 02:48:06;;;;;;;2.60;2.40;;;;;;;6.47;100.00;101121.53;5018058;28;20252;-75
2022/09/21 02:50:49;;;;;;;2.80;2.60;;;;;;;6.41;100.00;101114.56;5008027;28;20313;-75
2022/09/21 02:53:22;;;;;;;3.43;2.93;;;;;;;6.38;100.00;101111.91;5013775;28;20658;-75
2022/09/21 02:55:50;;;;;;;2.60;2.40;;;;;;;6.35;100.00;101111.88;5019019;28;20203;-75
2022/09/21 02:58:20;;;;;;;2.63;2.43;;;;;;;6.31;100.00;101105.75;5020932;28;20204;-73
2022/09/21 03:00:45;;;;;;;2.80;2.60;;;;;;;6.30;100.00;101110.88;5020309;28;20198;-75
2022/09/21 03:03:16;;;;;;;3.00;2.77;;;;;;;6.27;100.00;101115.94;5020150;28;20189;-76
2022/09/21 03:05:44;;;;;;;4.27;3.30;;;;;;;6.26;100.00;101115.09;5012442;28;20212;-75
2022/09/21 03:08:09;;;;;;;2.70;2.50;;;;;;;6.24;100.00;101112.47;5026558;28;20199;-75
2022/09/21 03:10:38;;;;;;;3.20;2.90;;;;;;;6.24;100.00;101107.34;5020670;28;20693;-75
2022/09/21 03:13:03;;;;;;;3.00;2.80;;;;;;;6.22;100.00;101109.00;5016361;28;20714;-75
2022/09/21 03:15:29;;;;;;;3.30;3.00;;;;;;;6.21;100.00;101107.25;5016415;28;20199;-75
2022/09/21 03:17:54;;;;;;;3.10;2.80;;;;;;;6.20;100.00;101113.22;5014446;28;20184;-76
2022/09/21 03:20:19;;;;;;;5.63;3.47;;;;;;;6.18;100.00;101114.03;5017155;28;20185;-75
2022/09/21 03:22:45;;;;;;;3.90;2.83;;;;;;;6.16;100.00;101111.44;5012793;28;20291;-76
2022/09/21 03:25:11;;;;;;;4.90;3.57;;;;;;;6.15;100.00;101116.53;5015006;28;20306;-75
2022/09/21 03:27:37;;;;;;;3.73;3.43;;;;;;;6.14;100.00;101115.69;5010886;28;20194;-75
2022/09/21 03:30:03;;;;;;;3.60;3.30;;;;;;;6.11;100.00;101125.88;5017800;28;20195;-75
2022/09/21 03:32:28;;;;;;;6.40;3.20;;;;;;;6.08;100.00;101118.09;5018274;28;20661;-75
2022/09/21 03:34:53;;;;;;;3.30;3.10;;;;;;;6.03;100.00;101120.56;5017478;28;20210;-75
2022/09/21 03:37:19;;;;;;;4.07;3.47;;;;;;;5.99;100.00;101129.00;5008347;28;20264;-75
2022/09/21 03:39:46;;;;;;;2.90;2.70;;;;;;;5.94;100.00;101131.47;5012577;28;20199;-75
2022/09/21 03:42:12;;;;;;;3.40;3.10;;;;;;;5.90;100.00;101123.66;5006550;28;20181;-75
2022/09/21 03:44:39;;;;;;;4.13;3.20;;;;;;;5.88;100.00;101133.03;5009556;28;20209;-75
2022/09/21 03:47:05;;;;;;;3.00;2.70;;;;;;;5.84;100.00;101129.53;5014194;28;20194;-75
2022/09/21 03:49:31;;;;;;;4.13;3.03;;;;;;;5.82;100.00;101131.19;5013093;28;21851;-74
2022/09/21 03:51:58;;;;;;;2.67;2.47;;;;;;;5.79;100.00;101131.97;5007795;28;20222;-75
2022/09/21 03:54:24;;;;;;;4.17;3.77;;;;;;;5.76;100.00;101133.59;5013069;28;20190;-75
2022/09/21 03:56:50;;;;;;;4.53;4.13;;;;;;;5.73;100.00;101129.25;5014707;28;20204;-75
2022/09/21 03:59:16;;;;;;;4.67;4.27;;;;;;;5.71;100.00;101132.63;5015633;28;20196;-75
2022/09/21 04:01:42;;;;;;;5.57;3.90;;;;;;;5.66;100.00;101132.53;5015110;28;20193;-74
2022/09/21 04:04:07;;;;;;;3.63;3.33;;;;;;;5.64;100.00;101122.19;5015224;28;20265;-75
2022/09/21 04:06:33;;;;;;;3.20;3.00;;;;;;;5.64;100.00;101126.47;5017344;28;20281;-75
2022/09/21 04:09:01;;;;;;;3.80;3.27;;;;;;;5.63;100.00;101133.28;5018877;28;20213;-75
2022/09/21 04:11:27;;;;;;;2.73;2.53;;;;;;;5.60;100.00;101135.78;5013709;28;20302;-75
2022/09/21 04:13:56;;;;;;;3.10;2.67;;;;;;;5.58;100.00;101141.72;5013850;28;20263;-75
2022/09/21 04:16:25;;;;;;;3.13;2.83;;;;;;;5.55;100.00;101142.50;5012759;28;20721;-75
2022/09/21 04:18:50;;;;;;;2.70;2.50;;;;;;;5.53;100.00;101144.16;5018044;28;20232;-74
2022/09/21 04:21:17;;;;;;;2.83;2.63;;;;;;;5.53;100.00;101138.16;5012328;28;20778;-74
2022/09/21 04:23:43;;;;;;;3.90;2.53;;;;;;;5.53;100.00;101138.16;5015738;28;20216;-75
2022/09/21 04:26:23;;;;;;;2.90;2.70;;;;;;;5.51;100.00;101135.56;5018444;28;20244;-74
2022/09/21 04:28:50;;;;;;;3.70;3.40;;;;;;;5.45;100.00;101138.84;5015577;28;20271;-75
2022/09/21 04:31:15;;;;;;;3.30;3.00;;;;;;;5.46;100.00;101148.28;5015836;28;20214;-74
2022/09/21 04:33:40;;;;;;;3.30;3.00;;;;;;;5.46;100.00;101142.25;5017678;28;20588;-74
2022/09/21 04:36:06;;;;;;;3.20;2.90;;;;;;;5.45;100.00;101146.53;5012072;28;20599;-75
2022/09/21 04:38:31;;;;;;;4.73;3.20;;;;;;;5.45;100.00;101143.97;5013867;28;20192;-74
2022/09/21 04:40:58;;;;;;;4.37;3.03;;;;;;;5.44;100.00;101144.78;5023216;28;20188;-75
2022/09/21 04:43:24;;;;;;;3.90;2.80;;;;;;;5.43;100.00;101153.31;5019922;28;20184;-74
2022/09/21 04:45:49;;;;;;;4.60;3.40;;;;;;;5.43;100.00;101157.59;5021001;28;21301;-75
2022/09/21 04:48:14;;;;;;;3.27;2.97;;;;;;;5.40;100.00;101157.53;5021878;28;20188;-74
2022/09/21 04:50:40;;;;;;;3.40;3.03;;;;;;;5.39;100.00;101159.19;5036011;28;20219;-73
2022/09/21 04:53:05;;;;;;;3.53;3.23;;;;;;;5.39;100.00;101155.78;5045904;28;20177;-73
2022/09/21 04:55:31;;;;;;;3.70;3.27;;;;;;;5.39;100.00;101153.22;5024751;28;20291;-74
2022/09/21 04:57:56;;;;;;;4.47;3.23;;;;;;;5.38;100.00;101161.75;5022249;28;20176;-74
2022/09/21 05:00:22;;;;;;;4.87;3.43;;;;;;;5.33;100.00;101162.47;5023177;28;20182;-74
2022/09/21 05:02:47;;;;;;;2.83;2.63;;;;;;;5.32;100.00;101163.31;5022827;28;20182;-75
2022/09/21 05:05:13;;;;;;;3.33;3.03;;;;;;;5.30;100.00;101161.53;5026770;28;20676;-75
2022/09/21 05:07:38;;;;;;;3.43;3.07;;;;;;;5.27;100.00;101166.59;5019191;28;20297;-74
2022/09/21 05:10:04;;;;;;;3.50;3.20;;;;;;;5.28;100.00;101165.75;5025318;28;20175;-75
2022/09/21 05:12:31;;;;;;;3.70;3.40;;;;;;;5.30;100.00;101161.53;5019690;28;20268;-74
2022/09/21 05:14:56;;;;;;;3.70;3.40;;;;;;;5.30;100.00;101172.66;5014095;28;20205;-74
2022/09/21 05:17:22;;;;;;;4.87;3.70;;;;;;;5.31;100.00;101169.25;5027261;28;20191;-75
2022/09/21 05:19:49;;;;;;;4.50;3.57;;;;;;;5.33;100.00;101172.75;5023650;28;20195;-74
2022/09/21 05:22:14;;;;;;;8.03;4.40;;;;;;;5.38;100.00;101166.88;5020558;28;20180;-74
2022/09/21 05:24:40;;;;;;;9.13;4.30;;;;;;;5.41;100.00;101166.97;5021590;28;20188;-74
2022/09/21 05:27:05;;;;;;;8.10;4.80;;;;;;;5.43;100.00;101166.16;5014815;28;20549;-75
2022/09/21 05:29:31;;;;;;;6.77;4.20;;;;;;;5.43;100.00;101171.28;5016411;28;20284;-76
2022/09/21 05:32:20;;;;;;;4.57;4.17;;;;;;;5.45;100.00;101167.06;5012859;28;20210;-76
2022/09/21 05:35:05;;;;;;;3.93;3.43;;;;;;;5.44;100.00;101170.47;5000831;28;20204;-76
2022/09/21 05:37:46;;;;;;;4.10;3.37;;;;;;;5.45;100.00;101173.91;5017632;28;20213;-76
2022/09/21 05:40:12;;;;;;;4.10;3.70;;;;;;;5.47;100.00;101175.69;5011954;28;20188;-76
2022/09/21 05:42:37;;;;;;;3.70;3.40;;;;;;;5.49;100.00;101168.91;5014878;28;20199;-74
2022/09/21 05:45:03;;;;;;;4.13;3.60;;;;;;;5.53;100.00;101174.97;5013150;28;20285;-74
2022/09/21 05:47:39;;;;;;;3.50;3.20;;;;;;;5.58;100.00;101172.53;5009467;28;20560;-74
2022/09/21 05:50:26;;;;;;;4.80;3.77;;;;;;;5.62;100.00;101177.78;5015868;28;20195;-74
2022/09/21 05:52:58;;;;;;;3.90;3.10;;;;;;;5.70;100.00;101179.69;5012686;28;20204;-74
2022/09/21 05:55:35;;;;;;;3.50;3.20;;;;;;;5.76;100.00;101184.97;5014405;28;20402;-74
2022/09/21 05:58:16;;;;;;;3.63;3.13;;;;;;;5.80;100.00;101182.53;5018192;28;20456;-74
2022/09/21 06:00:55;;;;;;;3.60;3.30;;;;;;;5.91;100.00;101194.75;5010115;28;20337;-74
2022/09/21 06:03:28;;;;;;;4.27;3.00;;;;;;;6.14;100.00;101187.66;5016853;28;20853;-74
2022/09/21 06:05:53;;;;;;;4.23;3.23;;;;;;;6.31;100.00;101190.59;5023536;28;20204;-74
2022/09/21 06:08:19;;;;;;;3.67;3.13;;;;;;;6.37;100.00;101189.88;5026702;28;20242;-75
2022/09/21 06:10:44;;;;;;;3.87;3.47;;;;;;;6.45;100.00;101185.78;5022222;28;20264;-75
2022/09/21 06:13:10;;;;;;;4.80;3.57;;;;;;;6.73;100.00;101196.69;5017990;28;20197;-74
2022/09/21 06:15:39;;;;;;;5.53;4.10;;;;;;;6.89;100.00;101202.16;5022169;28;20239;-75
2022/09/21 06:18:05;;;;;;;4.27;3.90;;;;;;;6.93;100.00;101199.66;5019011;28;20734;-75
2022/09/21 06:20:30;;;;;;;4.43;4.03;;;;;;;6.92;100.00;101195.34;5020785;28;20185;-75
2022/09/21 06:23:14;;;;;;;4.80;4.00;;;;;;;6.94;100.00;101198.81;5025993;28;20188;-74
2022/09/21 06:25:40;;;;;;;6.37;5.70;;;;;;;7.07;100.00;101197.38;5019660;28;20269;-75
2022/09/21 06:28:09;;;;;;;4.97;4.27;;;;;;;7.23;100.00;101197.69;5026997;28;20184;-74
2022/09/21 06:30:34;;;;;;;5.27;4.47;;;;;;;7.24;100.00;101204.56;5017717;28;20234;-75
2022/09/21 06:33:01;;;;;;;4.77;4.30;;;;;;;7.23;100.00;101195.97;5027640;28;20197;-75
2022/09/21 06:35:31;;;;;;;5.60;4.43;;;;;;;7.29;100.00;101203.81;5018235;28;20201;-75
2022/09/21 06:38:00;;;;;;;4.50;4.10;;;;;;;7.31;100.00;101204.72;5025074;28;20928;-76
2022/09/21 06:40:28;;;;;;;4.87;4.33;;;;;;;7.33;100.00;101203.03;5021220;28;20200;-74
2022/09/21 06:42:57;;;;;;;5.97;4.53;;;;;;;7.37;100.00;101203.97;5024107;28;20216;-75
2022/09/21 06:45:23;;;;;;;4.97;4.40;;;;;;;7.39;100.00;101204.00;5020030;28;20208;-75
2022/09/21 06:47:49;;;;;;;5.63;4.93;;;;;;;7.40;100.00;101206.63;5022421;28;20288;-74
2022/09/21 06:50:14;;;;;;;6.60;5.17;;;;;;;7.47;100.00;101211.03;5016151;28;20190;-74
2022/09/21 06:52:40;;;;;;;4.87;4.23;;;;;;;7.53;100.00;101206.84;5022773;28;20199;-75
2022/09/21 06:55:06;;;;;;;6.60;4.90;;;;;;;7.60;100.00;101206.09;5023000;28;20225;-74
2022/09/21 06:57:32;;;;;;;6.20;5.20;;;;;;;7.66;100.00;101207.91;5011290;28;20194;-74
2022/09/21 06:59:57;;;;;;;5.37;4.87;;;;;;;7.73;100.00;101204.59;5017633;28;20208;-74
2022/09/21 07:02:22;;;;;;;5.13;4.63;;;;;;;7.85;100.00;101209.13;5017614;28;20190;-75
2022/09/21 07:04:48;;;;;;;5.23;4.73;;;;;;;7.98;100.00;101213.63;5023717;28;20543;-74
2022/09/21 07:07:14;;;;;;;6.00;4.80;;;;;;;8.12;100.00;101206.09;5018330;28;20191;-74
2022/09/21 07:09:39;;;;;;;5.67;4.57;;;;;;;8.30;100.00;101205.56;5020290;28;20220;-75
2022/09/21 07:12:07;;;;;;;5.47;4.87;;;;;;;8.42;100.00;101210.00;5014451;28;20234;-75
2022/09/21 07:14:32;;;;;;;5.23;4.67;;;;;;;8.61;100.00;101218.94;5020187;28;20278;-77
2022/09/21 07:16:58;;;;;;;5.13;4.73;;;;;;;8.79;100.00;101209.69;5020290;28;20225;-75
2022/09/21 07:19:23;;;;;;;4.90;4.50;;;;;;;8.97;100.00;101207.34;5020032;28;20189;-75
2022/09/21 07:21:49;;;;;;;5.50;5.00;;;;;;;9.17;100.00;101205.84;5017838;28;20205;-75
2022/09/21 07:24:14;;;;;;;6.23;4.53;;;;;;;9.23;100.00;101203.34;5016802;28;20193;-75
2022/09/21 07:26:40;;;;;;;5.07;4.50;;;;;;;9.39;100.00;101205.25;5020366;28;20207;-75
2022/09/21 07:29:05;;;;;;;5.00;4.23;;;;;;;9.47;100.00;101207.91;5021338;28;20187;-74
2022/09/21 07:31:30;;;;;;;4.77;4.33;;;;;;;9.62;100.00;101204.59;5021771;28;20695;-75
2022/09/21 07:33:59;;;;;;;5.70;4.30;;;;;;;9.77;100.00;101202.16;5019584;28;20195;-74
2022/09/21 07:36:26;;;;;;;5.00;4.40;;;;;;;9.85;100.00;101204.81;5022577;28;20691;-73
2022/09/21 07:38:52;;;;;;;5.77;4.40;;;;;;;9.82;100.00;101206.50;5014703;28;20215;-74
2022/09/21 07:41:18;;;;;;;4.93;4.47;;;;;;;9.96;100.00;101204.91;5015127;28;20191;-76
2022/09/21 07:43:43;;;;;;;5.10;4.03;;;;;;;10.07;100.00;101207.59;5015704;28;20196;-76
2022/09/21 07:46:11;;;;;;;5.73;4.47;;;;;;;9.96;100.00;101204.91;5018762;28;20258;-76
2022/09/21 07:48:38;;;;;;;6.63;3.73;;;;;;;10.11;100.00;101206.78;5011497;28;20723;-76
2022/09/21 07:51:05;;;;;;;5.13;4.20;;;;;;;10.21;100.00;101202.50;5015090;28;20226;-76
2022/09/21 07:53:32;;;;;;;5.97;4.40;;;;;;;10.29;100.00;101200.84;5014810;28;20563;-75
2022/09/21 07:56:06;;;;;;;5.60;4.27;;;;;;;10.31;100.00;101208.63;5019152;28;20277;-76
2022/09/21 08:01:16;;;;;;;5.93;4.27;;;;;;;10.48;100.00;101204.44;5020804;28;20686;-76
2022/09/21 08:03:42;;;;;;;4.67;3.70;;;;;;;10.65;100.00;101206.28;5016914;28;20188;-76
2022/09/21 08:06:08;;;;;;;4.93;3.80;;;;;;;10.73;100.00;101201.13;5013994;28;20295;-76
2022/09/21 08:08:34;;;;;;;5.60;3.80;;;;;;;10.71;100.00;101200.25;5013764;28;20287;-76
2022/09/21 08:11:06;;;;;;;3.90;3.57;;;;;;;10.82;100.00;101216.72;5012278;28;20203;-76
2022/09/21 08:13:31;;;;;;;9.10;4.00;;;;;;;10.87;100.00;101207.25;5012265;28;20179;-76
2022/09/21 08:16:01;;;;;;;4.20;3.30;;;;;;;10.89;100.00;101202.09;5018909;28;20223;-76
2022/09/21 08:18:27;;;;;;;5.47;3.67;;;;;;;11.02;100.00;101193.50;5017223;28;20216;-76
2022/09/21 08:20:59;;;;;;;5.13;3.73;;;;;;;11.23;100.00;101192.72;5020051;28;20234;-77
2022/09/21 08:23:27;;;;;;;5.00;3.57;;;;;;;11.46;100.00;101199.66;5012949;28;20184;-76
2022/09/21 08:26:05;;;;;;;4.00;3.60;;;;;;;11.60;100.00;101202.28;5018418;28;20202;-76
2022/09/21 08:28:30;;;;;;;5.03;3.80;;;;;;;11.73;100.00;101201.44;5017556;28;20194;-76
2022/09/21 08:31:00;;;;;;;4.93;3.60;;;;;;;11.77;100.00;101196.28;5009855;28;20195;-76
2022/09/21 08:33:26;;;;;;;5.30;3.63;;;;;;;11.96;100.00;101197.97;5016058;28;20195;-75
2022/09/21 08:35:53;;;;;;;3.90;3.50;;;;;;;12.00;100.00;101193.72;5021877;28;20967;-75
2022/09/21 08:38:19;;;;;;;5.37;3.73;;;;;;;12.08;100.00;101191.13;5019929;28;20185;-75
2022/09/21 08:40:44;;;;;;;5.33;3.43;;;;;;;12.27;100.00;101189.34;5013963;28;20199;-77
2022/09/21 08:43:14;;;;;;;3.53;2.93;;;;;;;12.33;100.00;101197.13;5020955;28;20209;-75
2022/09/21 08:45:44;;;;;;;5.77;3.27;;;;;;;12.41;100.00;101197.97;5015772;28;20229;-75
2022/09/21 08:48:18;;;;;;;4.17;3.23;;;;;;;12.37;100.00;101196.25;5018373;28;20208;-76
2022/09/21 08:50:46;;;;;;;8.97;3.60;;;;;;;12.58;100.00;101186.69;5010937;28;20204;-77
2022/09/21 08:53:20;;;;;;;5.43;3.20;;;;;;;12.53;100.00;101191.03;5017380;28;20208;-76
2022/09/21 08:55:45;;;;;;;3.10;2.80;;;;;;;12.76;100.00;101184.06;5017466;28;20213;-75
2022/09/21 08:58:25;;;;;;;5.13;3.10;;;;;;;13.03;100.00;101179.59;5016811;28;20191;-74
2022/09/21 09:00:57;;;;;;;5.57;3.17;;;;;;;13.05;100.00;101179.56;5014702;28;20230;-76
2022/09/21 09:03:23;;;;;;;4.07;2.93;;;;;;;13.15;100.00;101180.41;5012691;28;20186;-75
2022/09/21 09:06:20;;;;;;;7.10;3.00;;;;;;;13.11;100.00;101182.16;5010204;28;20214;-75
2022/09/21 09:09:07;;;;;;;7.20;2.93;;;;;;;13.11;99.78;101175.22;5011476;28;20207;-76
2022/09/21 09:12:08;;;;;;;3.50;2.37;;;;;;;13.17;97.69;101168.25;5010981;28;20223;-75
2022/09/21 09:14:51;;;;;;;3.83;2.63;;;;;;;13.17;98.71;101171.72;5009607;28;20196;-75
2022/09/21 09:17:32;;;;;;;4.70;2.70;;;;;;;13.22;97.15;101175.16;5008418;28;20208;-75
2022/09/21 09:19:57;;;;;;;3.10;2.53;;;;;;;13.38;97.73;101175.94;5020976;28;20528;-76
2022/09/21 09:22:52;;;;;;;6.43;2.07;;;;;;;13.43;96.17;101173.34;5016443;28;20210;-76
2022/09/21 09:25:23;;;;;;;2.67;1.87;;;;;;;13.44;93.89;101180.28;5009838;28;20220;-75
2022/09/21 09:28:14;;;;;;;3.10;1.77;;;;;;;13.48;93.51;101166.34;5013991;28;20655;-75
2022/09/21 09:30:41;;;;;;;3.17;1.80;;;;;;;13.63;92.88;101169.72;5016685;28;20697;-75
2022/09/21 09:33:15;;;;;;;5.43;2.43;;;;;;;13.54;92.09;101165.44;5020213;28;20187;-75
2022/09/21 09:35:48;;;;;;;4.87;1.97;;;;;;;13.62;94.09;101171.47;5014273;28;20207;-75
2022/09/21 09:38:26;;;;;;;5.07;2.57;;;;;;;13.83;94.78;101161.78;5015768;28;20698;-75
2022/09/21 09:41:29;;;;;;;3.73;2.47;;;;;;;13.99;92.55;101150.34;5021809;28;20190;-75
2022/09/21 09:44:13;;;;;;;2.93;2.20;;;;;;;14.19;94.00;101164.91;5020915;28;20189;-76
2022/09/21 09:46:48;;;;;;;5.73;2.00;;;;;;;14.16;92.57;101157.13;5042264;28;20282;-75
2022/09/21 09:49:19;;;;;;;4.13;1.90;;;;;;;14.12;91.04;101153.69;5043831;28;20213;-75
2022/09/21 09:51:45;;;;;;;4.67;2.00;;;;;;;14.20;90.30;101164.03;5034478;28;20510;-74
2022/09/21 09:54:16;;;;;;;2.80;1.97;;;;;;;14.24;90.45;101163.13;5040245;28;20179;-75
2022/09/21 09:56:42;;;;;;;3.93;2.10;;;;;;;14.22;89.97;101145.81;5036473;28;20298;-74
2022/09/21 09:59:23;;;;;;;3.27;2.10;;;;;;;14.34;89.85;101156.09;5029495;28;20198;-75
2022/09/21 10:02:17;;;;;;;2.43;1.60;;;;;;;14.50;88.61;101141.13;5026450;28;20206;-75
2022/09/21 10:05:04;;;;;;;2.67;1.67;;;;;;;14.70;88.24;101130.50;5015874;28;20819;-75
2022/09/21 10:07:33;;;;;;;3.63;1.80;;;;;;;14.72;88.11;101143.53;5025617;28;20195;-75
2022/09/21 10:09:58;;;;;;;2.07;1.30;;;;;;;14.57;86.51;101134.13;5024734;28;20274;-74
2022/09/21 10:12:26;;;;;;;2.23;1.20;;;;;;;14.69;85.22;101133.16;5032153;28;20290;-75
2022/09/21 10:14:54;;;;;;;2.73;1.60;;;;;;;14.78;86.09;101127.81;5019027;28;20184;-76
2022/09/21 10:17:22;;;;;;;4.37;1.60;;;;;;;14.92;84.98;101130.25;5020527;28;20192;-75
2022/09/21 10:19:48;;;;;;;2.90;1.30;;;;;;;14.81;83.51;101124.31;5012036;28;20219;-75
2022/09/21 10:22:18;;;;;;;5.13;1.40;;;;;;;14.87;83.59;101127.69;5024507;28;20219;-75
2022/09/21 10:24:53;;;;;;;4.70;1.77;;;;;;;14.93;83.77;101130.22;5021075;28;20673;-76
2022/09/21 10:27:27;;;;;;;2.67;1.43;;;;;;;15.04;85.03;101126.63;5024252;28;20191;-76
2022/09/21 10:29:53;;;;;;;5.10;1.40;;;;;;;15.20;83.28;101120.25;5020835;28;20245;-75
2022/09/21 10:32:23;;;;;;;1.30;0.90;;;;;;;15.31;83.06;101127.09;5022229;28;20229;-76
2022/09/21 10:35:04;;;;;;;3.23;1.27;;;;;;;15.31;83.56;101116.66;5020453;28;20199;-75
2022/09/21 10:37:33;;;;;;;2.20;1.07;;;;;;;15.50;83.86;101120.66;5024777;28;20199;-75
2022/09/21 10:39:59;;;;;;;2.80;1.10;;;;;;;15.43;81.33;101116.47;5014611;28;20191;-75
2022/09/21 10:42:26;;;;;;;1.87;1.07;;;;;;;15.28;80.23;101122.75;5018156;28;20196;-76
2022/09/21 10:45:05;;;;;;;2.73;0.90;;;;;;;15.38;80.36;101110.44;5016458;28;20211;-75
2022/09/21 10:47:31;;;;;;;2.10;1.07;;;;;;;15.31;79.96;101108.81;5016695;28;20192;-74
2022/09/21 10:49:59;;;;;;;1.70;0.87;;;;;;;15.33;79.78;101107.06;5015242;28;20188;-75
2022/09/21 10:52:33;;;;;;;6.37;1.00;;;;;;;15.32;79.21;101118.38;5013318;28;20526;-76
2022/09/21 10:54:59;;;;;;;1.80;0.83;;;;;;;15.33;79.85;101107.06;5010728;28;20187;-75
2022/09/21 10:57:26;;;;;;;1.93;0.73;;;;;;;15.34;78.78;101116.63;5012363;28;20179;-75
2022/09/21 10:59:52;;;;;;;2.63;1.10;;;;;;;15.33;78.72;101120.94;5019349;28;20196;-76
2022/09/21 11:02:30;;;;;;;2.70;1.10;;;;;;;15.46;79.41;101115.53;5013950;28;20188;-75
2022/09/21 11:05:27;;;;;;;1.87;0.80;;;;;;;15.52;79.18;101116.28;5017776;28;20715;-75
2022/09/21 11:07:57;;;;;;;2.87;1.10;;;;;;;15.50;78.74;101112.84;5020603;28;20198;-76
2022/09/21 11:10:44;;;;;;;3.37;1.40;;;;;;;15.53;78.69;101101.53;5019168;28;20227;-75
2022/09/21 11:13:34;;;;;;;2.73;1.27;;;;;;;15.55;77.92;101095.38;5017008;28;20200;-76
2022/09/21 11:16:21;;;;;;;3.33;1.30;;;;;;;15.59;78.61;101108.38;5014201;28;20212;-76
2022/09/21 11:19:28;;;;;;;3.67;1.20;;;;;;;15.62;77.76;101105.72;5032051;28;20195;-74
2022/09/21 11:22:32;;;;;;;3.33;1.27;;;;;;;15.70;78.06;101101.22;5026491;28;20189;-75
2022/09/21 11:25:16;;;;;;;2.13;1.00;;;;;;;15.65;77.26;101093.47;4999994;28;20657;-76
2022/09/21 11:27:48;;;;;;;4.07;1.67;;;;;;;15.74;75.64;101089.84;5023698;28;20210;-76
2022/09/21 11:30:16;;;;;;;3.97;1.10;;;;;;;15.78;76.08;101075.88;5017374;28;20229;-75
2022/09/21 11:32:50;;;;;;;1.80;1.00;;;;;;;15.92;76.64;101077.41;5015231;28;20596;-75
2022/09/21 11:35:26;;;;;;;2.33;0.90;;;;;;;15.78;75.55;101077.59;5016440;28;20257;-75
2022/09/21 11:38:10;;;;;;;4.50;1.17;;;;;;;15.91;76.95;101078.28;5018588;28;20181;-76
2022/09/21 11:40:54;;;;;;;1.63;1.00;;;;;;;15.99;74.62;101068.53;5018962;28;20228;-75
2022/09/21 11:43:46;;;;;;;2.60;1.10;;;;;;;15.97;74.93;101067.72;5010786;28;20196;-74
2022/09/21 11:46:18;;;;;;;2.67;1.03;;;;;;;16.09;76.15;101058.78;5017684;28;20207;-75